Time;durP1;ratioP1;P1;durP2;ratioP2;P2;SDS_P1;SDS_P2;PMS_P1;PMS_P2;Temp;Humidity;BMP_temperature;BMP_pressure;BME280_temperature;BME280_humidity;BME280_pressure;Samples;Min_cycle;Max_cycle;Signal;HPM_P1;HPM_P2
2023/03/30 00:00:41;;;;;;;3.35;1.63;;;;;;;;;;5067706;28;20511;-72
2023/03/30 00:03:08;;;;;;;4.28;2.00;;;;;;;;;;5064894;28;20032;-72
2023/03/30 00:05:34;;;;;;;5.20;1.85;;;;;;;;;;5066918;28;20037;-70
2023/03/30 00:07:59;;;;;;;5.63;1.70;;;;;;;;;;5066724;28;20051;-70
2023/03/30 00:10:26;;;;;;;3.95;1.50;;;;;;;;;;5082214;28;20044;-71
2023/03/30 00:12:51;;;;;;;4.28;1.80;;;;;;;;;;5067800;28;20515;-71
2023/03/30 00:15:19;;;;;;;4.72;1.75;;;;;;;;;;5066216;28;20045;-72
2023/03/30 00:17:44;;;;;;;2.60;1.38;;;;;;;;;;5067644;28;20078;-72
2023/03/30 00:20:11;;;;;;;3.53;1.70;;;;;;;;;;5067297;28;20048;-72
2023/03/30 00:22:38;;;;;;;3.72;1.65;;;;;;;;;;5067957;28;20044;-72
2023/03/30 00:25:06;;;;;;;2.92;1.40;;;;;;;;;;5064604;28;20120;-71
2023/03/30 00:27:31;;;;;;;5.13;1.52;;;;;;;;;;5067523;28;20112;-72
2023/03/30 00:29:56;;;;;;;4.28;1.45;;;;;;;;;;5066844;28;20108;-72
2023/03/30 00:32:22;;;;;;;7.43;1.77;;;;;;;;;;5066708;28;20542;-72
2023/03/30 00:34:47;;;;;;;8.90;2.00;;;;;;;;;;5066380;28;20076;-72
2023/03/30 00:37:14;;;;;;;4.97;1.40;;;;;;;;;;5066404;28;20039;-72
2023/03/30 00:39:39;;;;;;;5.45;1.63;;;;;;;;;;5066250;28;20111;-72
2023/03/30 00:42:04;;;;;;;3.15;1.20;;;;;;;;;;5067571;28;20115;-72
2023/03/30 00:45:01;;;;;;;2.50;1.27;;;;;;;;;;5064444;28;20028;-72
2023/03/30 00:47:27;;;;;;;4.13;1.40;;;;;;;;;;5065082;28;20558;-72
2023/03/30 00:49:53;;;;;;;2.35;1.33;;;;;;;;;;5064522;28;20040;-72
2023/03/30 00:52:23;;;;;;;3.70;1.80;;;;;;;;;;5066025;28;20878;-72
2023/03/30 00:54:52;;;;;;;3.88;1.77;;;;;;;;;;5064860;28;20036;-72
2023/03/30 00:57:21;;;;;;;4.50;1.50;;;;;;;;;;5063276;28;20042;-72
2023/03/30 00:59:48;;;;;;;5.05;1.60;;;;;;;;;;5045587;28;20053;-71
2023/03/30 01:02:14;;;;;;;3.28;1.73;;;;;;;;;;5046396;28;20028;-71
2023/03/30 01:04:40;;;;;;;4.88;1.55;;;;;;;;;;5057158;28;20414;-71
2023/03/30 01:07:06;;;;;;;3.03;1.40;;;;;;;;;;5065286;28;20085;-71
2023/03/30 01:09:31;;;;;;;4.60;1.40;;;;;;;;;;5066563;28;20032;-71
2023/03/30 01:11:57;;;;;;;2.50;1.42;;;;;;;;;;5079154;28;20457;-71
2023/03/30 01:14:22;;;;;;;2.97;1.60;;;;;;;;;;5065230;28;20036;-71
2023/03/30 01:17:07;;;;;;;5.38;1.60;;;;;;;;;;5065610;28;20036;-71
2023/03/30 01:19:50;;;;;;;4.10;1.80;;;;;;;;;;5064718;28;20045;-71
2023/03/30 01:22:41;;;;;;;2.25;1.35;;;;;;;;;;5063951;28;20298;-72
2023/03/30 01:25:28;;;;;;;5.15;1.83;;;;;;;;;;5058069;28;20048;-72
2023/03/30 01:28:10;;;;;;;4.72;1.75;;;;;;;;;;5064396;28;20117;-72
2023/03/30 01:30:41;;;;;;;5.20;1.60;;;;;;;;;;5064616;28;20169;-71
2023/03/30 01:33:37;;;;;;;3.95;1.83;;;;;;;;;;5064405;28;20040;-71
2023/03/30 01:36:31;;;;;;;2.72;1.80;;;;;;;;;;5065007;28;20047;-71
2023/03/30 01:39:21;;;;;;;4.63;1.60;;;;;;;;;;5065742;28;20538;-72
2023/03/30 01:42:08;;;;;;;2.40;1.27;;;;;;;;;;5064880;28;20415;-71
2023/03/30 01:44:53;;;;;;;6.75;1.88;;;;;;;;;;5064894;28;20036;-72
2023/03/30 01:47:24;;;;;;;4.35;1.58;;;;;;;;;;5064153;28;20028;-72
2023/03/30 01:49:56;;;;;;;4.68;1.70;;;;;;;;;;5080603;28;20043;-72
2023/03/30 01:52:31;;;;;;;5.13;1.80;;;;;;;;;;5064098;28;20040;-72
2023/03/30 01:55:03;;;;;;;4.78;1.70;;;;;;;;;;5065259;28;20585;-72
2023/03/30 01:57:52;;;;;;;4.25;1.75;;;;;;;;;;5065509;28;20029;-72
2023/03/30 02:00:21;;;;;;;6.22;1.67;;;;;;;;;;5072121;28;20491;-72
2023/03/30 02:02:53;;;;;;;2.30;1.50;;;;;;;;;;5077790;28;20031;-72
2023/03/30 02:05:21;;;;;;;4.20;1.60;;;;;;;;;;5063458;28;20741;-72
2023/03/30 02:07:51;;;;;;;4.43;1.63;;;;;;;;;;5045363;28;20466;-72
2023/03/30 02:10:20;;;;;;;4.72;1.75;;;;;;;;;;5043679;28;20036;-72
2023/03/30 02:12:46;;;;;;;4.35;1.60;;;;;;;;;;5054147;28;20067;-72
2023/03/30 02:15:13;;;;;;;4.40;1.90;;;;;;;;;;5063544;28;21004;-72
2023/03/30 02:17:40;;;;;;;6.35;1.55;;;;;;;;;;5065322;28;20032;-72
2023/03/30 02:20:11;;;;;;;2.75;1.60;;;;;;;;;;5063589;28;20032;-72
2023/03/30 02:22:37;;;;;;;3.53;1.65;;;;;;;;;;5065346;28;20041;-72
2023/03/30 02:25:04;;;;;;;5.25;1.48;;;;;;;;;;5065060;28;20083;-72
2023/03/30 02:27:31;;;;;;;4.38;1.83;;;;;;;;;;5064671;28;20032;-72
2023/03/30 02:29:57;;;;;;;5.30;1.70;;;;;;;;;;5065274;28;20081;-72
2023/03/30 02:32:26;;;;;;;2.60;1.50;;;;;;;;;;5080396;28;20310;-72
2023/03/30 02:35:00;;;;;;;4.95;1.48;;;;;;;;;;5065172;28;20033;-72
2023/03/30 02:37:47;;;;;;;6.05;2.05;;;;;;;;;;5064897;28;20040;-72
2023/03/30 02:40:21;;;;;;;5.10;1.70;;;;;;;;;;5065174;28;20039;-72
2023/03/30 02:43:25;;;;;;;4.95;1.70;;;;;;;;;;5062955;28;20037;-71
2023/03/30 02:45:56;;;;;;;3.65;1.55;;;;;;;;;;5058496;28;20073;-72
2023/03/30 02:48:38;;;;;;;5.47;1.77;;;;;;;;;;5065070;28;20032;-72
2023/03/30 02:51:36;;;;;;;3.63;1.67;;;;;;;;;;5063655;28;20028;-72
2023/03/30 02:54:22;;;;;;;3.85;2.03;;;;;;;;;;5018729;28;20483;-72
2023/03/30 02:57:01;;;;;;;5.50;1.60;;;;;;;;;;5067151;28;20476;-72
2023/03/30 02:59:33;;;;;;;3.75;1.77;;;;;;;;;;5068460;28;20099;-72
2023/03/30 03:02:05;;;;;;;2.33;1.70;;;;;;;;;;5066447;28;20040;-71
2023/03/30 03:04:33;;;;;;;4.33;2.67;;;;;;;;;;5068113;28;20041;-72
2023/03/30 03:07:01;;;;;;;4.25;2.33;;;;;;;;;;5068143;28;20028;-71
2023/03/30 03:09:27;;;;;;;5.35;2.10;;;;;;;;;;5068492;28;20055;-72
2023/03/30 03:11:53;;;;;;;5.22;1.85;;;;;;;;;;5067896;28;20400;-72
2023/03/30 03:14:19;;;;;;;4.78;1.88;;;;;;;;;;5066778;28;20526;-72
2023/03/30 03:16:45;;;;;;;7.60;2.03;;;;;;;;;;5080840;28;20089;-72
2023/03/30 03:19:10;;;;;;;7.53;1.90;;;;;;;;;;5065367;28;20036;-72
2023/03/30 03:21:36;;;;;;;2.78;1.67;;;;;;;;;;5064703;28;20043;-72
2023/03/30 03:24:02;;;;;;;3.97;1.58;;;;;;;;;;5067940;28;20017;-72
2023/03/30 03:26:28;;;;;;;3.33;1.65;;;;;;;;;;5067807;28;20041;-72
2023/03/30 03:28:53;;;;;;;3.08;1.95;;;;;;;;;;5067689;28;20047;-72
2023/03/30 03:31:18;;;;;;;2.15;1.40;;;;;;;;;;5067554;28;20040;-72
2023/03/30 03:33:44;;;;;;;2.70;1.65;;;;;;;;;;5066166;28;20064;-72
2023/03/30 03:36:10;;;;;;;2.78;1.63;;;;;;;;;;5067635;28;20106;-72
2023/03/30 03:38:36;;;;;;;2.97;1.60;;;;;;;;;;5068500;28;20723;-72
2023/03/30 03:41:01;;;;;;;2.97;1.67;;;;;;;;;;5067471;28;20043;-72
2023/03/30 03:43:27;;;;;;;7.25;1.90;;;;;;;;;;5063647;28;20543;-72
2023/03/30 03:45:52;;;;;;;4.78;1.70;;;;;;;;;;5066450;28;20523;-71
2023/03/30 03:48:20;;;;;;;4.63;1.70;;;;;;;;;;5064990;28;20583;-71
2023/03/30 03:50:52;;;;;;;3.00;1.85;;;;;;;;;;5067425;28;20056;-71
2023/03/30 03:53:18;;;;;;;2.58;1.50;;;;;;;;;;5067553;28;20051;-72
2023/03/30 03:55:44;;;;;;;6.80;1.95;;;;;;;;;;5067579;28;20052;-72
2023/03/30 03:58:10;;;;;;;6.88;1.95;;;;;;;;;;5067263;28;20076;-72
2023/03/30 04:00:36;;;;;;;10.25;3.00;;;;;;;;;;5066294;28;20060;-72
2023/03/30 04:03:03;;;;;;;3.42;1.88;;;;;;;;;;5067534;28;20048;-72
2023/03/30 04:05:29;;;;;;;4.72;1.70;;;;;;;;;;5059821;28;20152;-72
2023/03/30 04:07:55;;;;;;;4.82;1.73;;;;;;;;;;5066173;28;20194;-72
2023/03/30 04:10:21;;;;;;;2.30;1.40;;;;;;;;;;5065708;28;20044;-72
2023/03/30 04:12:47;;;;;;;4.75;1.77;;;;;;;;;;5066211;28;20041;-72
2023/03/30 04:15:12;;;;;;;4.25;1.83;;;;;;;;;;5066966;28;20020;-72
2023/03/30 04:17:38;;;;;;;5.75;2.53;;;;;;;;;;5066214;28;20063;-72
2023/03/30 04:20:07;;;;;;;2.55;1.50;;;;;;;;;;5067200;28;20028;-72
2023/03/30 04:22:34;;;;;;;3.35;1.60;;;;;;;;;;5066854;28;20044;-71
2023/03/30 04:25:00;;;;;;;2.78;1.63;;;;;;;;;;5067009;28;20423;-71
2023/03/30 04:27:27;;;;;;;6.65;2.22;;;;;;;;;;5066694;28;20020;-71
2023/03/30 04:29:56;;;;;;;5.53;2.13;;;;;;;;;;5066113;28;20021;-72
2023/03/30 04:32:22;;;;;;;5.60;2.20;;;;;;;;;;5065475;28;20523;-72
2023/03/30 04:34:48;;;;;;;3.63;2.08;;;;;;;;;;5066870;28;20082;-72
2023/03/30 04:37:17;;;;;;;5.50;1.80;;;;;;;;;;5064942;28;20041;-72
2023/03/30 04:39:45;;;;;;;4.40;2.13;;;;;;;;;;5065884;28;20193;-72
2023/03/30 04:42:18;;;;;;;3.28;1.90;;;;;;;;;;5065216;28;20024;-72
2023/03/30 04:44:44;;;;;;;3.25;1.63;;;;;;;;;;5066800;28;20027;-72
2023/03/30 04:47:09;;;;;;;3.20;1.52;;;;;;;;;;5066339;28;20052;-72
2023/03/30 04:49:34;;;;;;;4.53;1.95;;;;;;;;;;5065356;28;20060;-72
2023/03/30 04:52:00;;;;;;;4.53;1.83;;;;;;;;;;5065575;28;20120;-72
2023/03/30 04:54:25;;;;;;;5.00;1.88;;;;;;;;;;5065224;28;20071;-72
2023/03/30 04:56:50;;;;;;;5.97;2.15;;;;;;;;;;5064562;28;20012;-72
2023/03/30 04:59:16;;;;;;;5.38;2.10;;;;;;;;;;5064780;28;20703;-72
2023/03/30 05:01:41;;;;;;;3.47;2.03;;;;;;;;;;5065608;28;20033;-72
2023/03/30 05:04:07;;;;;;;7.85;2.40;;;;;;;;;;5065275;28;20438;-71
2023/03/30 05:06:33;;;;;;;7.50;2.63;;;;;;;;;;5066674;28;20028;-72
2023/03/30 05:08:58;;;;;;;6.40;2.22;;;;;;;;;;5064775;28;20020;-72
2023/03/30 05:11:24;;;;;;;5.40;2.55;;;;;;;;;;5063843;28;20587;-71
2023/03/30 05:13:50;;;;;;;8.65;2.30;;;;;;;;;;5080561;28;20062;-71
2023/03/30 05:16:16;;;;;;;5.55;2.22;;;;;;;;;;5065693;28;20036;-71
2023/03/30 05:18:42;;;;;;;5.40;2.25;;;;;;;;;;5065221;28;20024;-71
2023/03/30 05:21:07;;;;;;;4.63;2.65;;;;;;;;;;5065839;28;20078;-71
2023/03/30 05:23:32;;;;;;;7.15;2.85;;;;;;;;;;5065780;28;20045;-71
2023/03/30 05:25:58;;;;;;;8.02;2.70;;;;;;;;;;5066132;28;20040;-71
2023/03/30 05:28:23;;;;;;;6.85;2.63;;;;;;;;;;5063146;28;20051;-71
2023/03/30 05:30:53;;;;;;;4.47;2.40;;;;;;;;;;5064383;28;20453;-71
2023/03/30 05:33:19;;;;;;;4.93;2.30;;;;;;;;;;5065803;28;20025;-72
2023/03/30 05:35:45;;;;;;;6.72;2.50;;;;;;;;;;5063893;28;20020;-71
2023/03/30 05:38:11;;;;;;;4.55;2.25;;;;;;;;;;5063644;28;20028;-71
2023/03/30 05:40:36;;;;;;;4.47;2.10;;;;;;;;;;5064740;28;20062;-71
2023/03/30 05:43:02;;;;;;;3.03;1.92;;;;;;;;;;5061395;28;20029;-71
2023/03/30 05:45:27;;;;;;;6.50;2.38;;;;;;;;;;5062871;28;20021;-71
2023/03/30 05:47:53;;;;;;;6.88;2.45;;;;;;;;;;5065509;28;20095;-71
2023/03/30 05:50:19;;;;;;;4.20;2.15;;;;;;;;;;5065006;28;20106;-71
2023/03/30 05:52:44;;;;;;;11.85;2.60;;;;;;;;;;5065177;28;20655;-71
2023/03/30 05:55:10;;;;;;;6.22;2.28;;;;;;;;;;5065647;28;20029;-71
2023/03/30 05:57:36;;;;;;;6.93;2.30;;;;;;;;;;5063935;28;20078;-71
2023/03/30 06:00:05;;;;;;;6.00;2.00;;;;;;;;;;5066019;28;20028;-71
2023/03/30 06:02:31;;;;;;;4.03;1.88;;;;;;;;;;5042583;28;20043;-71
2023/03/30 06:04:56;;;;;;;4.60;2.05;;;;;;;;;;5058925;28;20029;-71
2023/03/30 06:07:23;;;;;;;6.25;1.83;;;;;;;;;;5062942;28;20029;-71
2023/03/30 06:09:48;;;;;;;5.65;2.20;;;;;;;;;;5062799;28;20033;-71
2023/03/30 06:12:14;;;;;;;6.70;2.20;;;;;;;;;;5063914;28;20384;-71
2023/03/30 06:14:39;;;;;;;4.93;2.13;;;;;;;;;;5059438;28;20062;-72
2023/03/30 06:17:05;;;;;;;5.20;2.58;;;;;;;;;;5054449;28;20408;-72
2023/03/30 06:19:30;;;;;;;6.95;2.80;;;;;;;;;;5062083;28;20035;-72
2023/03/30 06:21:56;;;;;;;3.85;2.33;;;;;;;;;;5055192;28;20036;-72
2023/03/30 06:24:21;;;;;;;7.25;2.50;;;;;;;;;;5053747;28;20745;-72
2023/03/30 06:26:47;;;;;;;4.53;2.90;;;;;;;;;;5064039;28;20025;-71
2023/03/30 06:29:13;;;;;;;4.63;3.15;;;;;;;;;;5064382;28;20107;-72
2023/03/30 06:31:38;;;;;;;6.93;3.63;;;;;;;;;;5068731;28;20082;-71
2023/03/30 06:34:03;;;;;;;7.38;3.15;;;;;;;;;;5069104;28;20029;-71
2023/03/30 06:36:29;;;;;;;8.00;4.00;;;;;;;;;;5066650;28;20033;-71
2023/03/30 06:38:54;;;;;;;7.72;4.15;;;;;;;;;;5069423;28;20052;-72
2023/03/30 06:41:20;;;;;;;10.07;4.10;;;;;;;;;;5068110;28;20040;-71
2023/03/30 06:43:46;;;;;;;10.60;4.35;;;;;;;;;;5067648;28;20033;-71
2023/03/30 06:46:12;;;;;;;7.68;4.00;;;;;;;;;;5065903;28;20051;-72
2023/03/30 06:48:38;;;;;;;12.27;3.80;;;;;;;;;;5069171;28;20033;-72
2023/03/30 06:51:04;;;;;;;8.95;3.83;;;;;;;;;;5069440;28;20087;-72
2023/03/30 06:53:29;;;;;;;8.07;3.53;;;;;;;;;;5066460;28;20040;-71
2023/03/30 06:55:57;;;;;;;7.15;2.60;;;;;;;;;;5065964;28;20096;-72
2023/03/30 06:58:23;;;;;;;7.07;2.88;;;;;;;;;;5068246;28;20053;-72
2023/03/30 07:00:49;;;;;;;5.28;3.15;;;;;;;;;;5066626;28;20037;-72
2023/03/30 07:03:18;;;;;;;7.93;2.47;;;;;;;;;;5064759;28;20029;-72
2023/03/30 07:05:47;;;;;;;10.68;3.10;;;;;;;;;;5068258;28;20031;-72
2023/03/30 07:08:13;;;;;;;8.50;2.60;;;;;;;;;;5066286;28;20550;-72
2023/03/30 07:10:39;;;;;;;9.45;2.53;;;;;;;;;;5066653;28;20037;-72
2023/03/30 07:13:06;;;;;;;5.95;2.13;;;;;;;;;;5067022;28;20025;-72
2023/03/30 07:15:32;;;;;;;11.77;2.78;;;;;;;;;;5065336;28;20025;-73
2023/03/30 07:17:57;;;;;;;6.75;2.80;;;;;;;;;;5068851;28;20028;-72
2023/03/30 07:20:22;;;;;;;7.38;2.67;;;;;;;;;;5063155;28;20571;-72
2023/03/30 07:22:48;;;;;;;11.85;3.30;;;;;;;;;;5064606;28;20460;-72
2023/03/30 07:25:13;;;;;;;11.13;2.80;;;;;;;;;;5067213;28;20566;-73
2023/03/30 07:27:39;;;;;;;8.85;2.58;;;;;;;;;;5066615;28;20032;-73
2023/03/30 07:30:06;;;;;;;10.18;2.70;;;;;;;;;;5066575;28;20025;-73
2023/03/30 07:32:32;;;;;;;5.68;2.63;;;;;;;;;;5065632;28;20039;-73
2023/03/30 07:34:57;;;;;;;9.38;2.65;;;;;;;;;;5059498;28;20045;-73
2023/03/30 07:37:23;;;;;;;7.45;2.38;;;;;;;;;;5066785;28;20112;-73
2023/03/30 07:39:49;;;;;;;6.78;2.35;;;;;;;;;;5067882;28;20055;-73
2023/03/30 07:42:14;;;;;;;14.23;2.83;;;;;;;;;;5066301;28;20020;-73
2023/03/30 07:44:40;;;;;;;6.40;2.83;;;;;;;;;;5065508;28;20032;-73
2023/03/30 07:47:05;;;;;;;6.25;2.72;;;;;;;;;;5062541;28;20036;-73
2023/03/30 07:49:31;;;;;;;8.52;3.03;;;;;;;;;;5058887;28;20029;-73
2023/03/30 07:51:58;;;;;;;10.38;2.80;;;;;;;;;;5063630;28;20821;-73
2023/03/30 07:54:24;;;;;;;7.85;3.30;;;;;;;;;;5063878;28;20025;-73
2023/03/30 07:56:51;;;;;;;8.85;3.30;;;;;;;;;;5063686;28;20372;-73
2023/03/30 07:59:22;;;;;;;7.00;2.72;;;;;;;;;;5060607;28;20040;-73
2023/03/30 08:01:49;;;;;;;7.38;2.20;;;;;;;;;;5061588;28;20036;-73
2023/03/30 08:04:15;;;;;;;7.70;2.22;;;;;;;;;;5061409;28;20141;-73
2023/03/30 08:06:41;;;;;;;6.75;2.05;;;;;;;;;;5054401;28;20033;-73
2023/03/30 08:09:07;;;;;;;7.43;2.15;;;;;;;;;;5060677;28;20127;-73
2023/03/30 08:11:34;;;;;;;6.22;1.88;;;;;;;;;;5061567;28;20093;-73
2023/03/30 08:14:00;;;;;;;11.77;2.00;;;;;;;;;;5062657;28;20028;-73
2023/03/30 08:16:25;;;;;;;7.90;1.63;;;;;;;;;;5064053;28;20522;-73
2023/03/30 08:18:53;;;;;;;6.75;1.50;;;;;;;;;;5060082;28;20376;-73
2023/03/30 08:21:19;;;;;;;10.50;1.63;;;;;;;;;;5061956;28;20031;-72
2023/03/30 08:23:45;;;;;;;3.40;1.58;;;;;;;;;;5062949;28;20023;-72
2023/03/30 08:26:10;;;;;;;5.18;1.50;;;;;;;;;;5063693;28;20037;-72
2023/03/30 08:28:36;;;;;;;5.20;1.92;;;;;;;;;;5062887;28;20040;-73
2023/03/30 08:31:07;;;;;;;5.80;1.40;;;;;;;;;;5056123;28;20123;-72
2023/03/30 08:33:33;;;;;;;3.08;0.98;;;;;;;;;;5064918;28;20039;-72
2023/03/30 08:35:59;;;;;;;8.32;1.80;;;;;;;;;;5061145;28;20026;-72
2023/03/30 08:38:25;;;;;;;10.57;1.55;;;;;;;;;;5060995;28;20036;-73
2023/03/30 08:40:50;;;;;;;9.02;1.85;;;;;;;;;;5060227;28;20029;-72
2023/03/30 08:43:16;;;;;;;16.27;2.05;;;;;;;;;;5061509;28;20063;-72
2023/03/30 08:45:42;;;;;;;7.30;1.70;;;;;;;;;;5063798;28;20544;-72
2023/03/30 08:48:17;;;;;;;6.47;1.60;;;;;;;;;;5062800;28;20108;-72
2023/03/30 08:50:51;;;;;;;6.82;1.70;;;;;;;;;;5059918;28;24176;-73
2023/03/30 08:53:17;;;;;;;8.82;2.22;;;;;;;;;;5061551;28;20041;-72
2023/03/30 08:55:50;;;;;;;6.82;1.88;;;;;;;;;;5060410;28;20028;-72
2023/03/30 08:58:25;;;;;;;;;;;;;;;;;;5064824;28;20124;-72
2023/03/30 09:01:18;;;;;;;8.00;2.20;;;;;;;;;;5060033;28;20003;-72
2023/03/30 09:03:53;;;;;;;5.07;1.27;;;;;;;;;;5063938;28;20036;-72
2023/03/30 09:06:26;;;;;;;10.60;1.70;;;;;;;;;;5062476;28;20672;-72
2023/03/30 09:08:52;;;;;;;6.15;1.50;;;;;;;;;;5060496;28;20013;-73
2023/03/30 09:11:30;;;;;;;14.55;2.40;;;;;;;;;;5061836;28;20056;-73
2023/03/30 09:14:00;;;;;;;6.90;2.03;;;;;;;;;;5051680;28;20037;-73
2023/03/30 09:16:38;;;;;;;9.18;2.00;;;;;;;;;;5060544;28;20037;-73
2023/03/30 09:19:07;;;;;;;8.68;1.77;;;;;;;;;;5052425;28;20045;-71
2023/03/30 09:21:32;;;;;;;9.45;1.58;;;;;;;;;;5054767;28;20056;-73
2023/03/30 09:24:01;;;;;;;8.82;1.83;;;;;;;;;;5062170;28;20070;-72
2023/03/30 09:26:51;;;;;;;5.40;1.63;;;;;;;;;;5061993;28;20572;-72
2023/03/30 09:29:21;;;;;;;7.05;1.58;;;;;;;;;;5051982;28;20942;-72
2023/03/30 09:32:27;;;;;;;9.90;1.60;;;;;;;;;;5086681;28;20040;-72
2023/03/30 09:35:23;;;;;;;11.82;1.67;;;;;;;;;;4998855;28;20096;-71
2023/03/30 09:37:49;;;;;;;9.82;1.83;;;;;;;;;;4982419;28;20122;-72
2023/03/30 09:40:41;;;;;;;6.53;1.75;;;;;;;;;;5017392;28;20079;-72
2023/03/30 09:43:30;;;;;;;8.95;1.85;;;;;;;;;;5042648;28;20044;-72
2023/03/30 09:45:57;;;;;;;16.92;3.22;;;;;;;;;;5055320;28;20682;-72
2023/03/30 09:48:22;;;;;;;8.40;1.92;;;;;;;;;;5043804;28;20041;-73
2023/03/30 09:50:47;;;;;;;9.07;1.83;;;;;;;;;;5040387;28;20515;-72
2023/03/30 09:53:28;;;;;;;10.63;1.65;;;;;;;;;;5055992;28;20101;-72
2023/03/30 09:55:56;;;;;;;9.82;2.17;;;;;;;;;;5044567;28;20032;-73
2023/03/30 09:58:27;;;;;;;11.23;2.08;;;;;;;;;;5041318;28;20125;-72
2023/03/30 10:01:02;;;;;;;11.20;2.75;;;;;;;;;;5041828;28;20068;-72
2023/03/30 10:03:28;;;;;;;10.20;2.13;;;;;;;;;;5043381;28;20060;-72
2023/03/30 10:06:01;;;;;;;8.13;1.75;;;;;;;;;;5040538;28;20483;-73
2023/03/30 10:08:27;;;;;;;9.45;2.20;;;;;;;;;;5039297;28;20040;-72
2023/03/30 10:10:54;;;;;;;8.40;1.90;;;;;;;;;;5043538;28;20033;-71
2023/03/30 10:13:27;;;;;;;11.85;2.40;;;;;;;;;;5043622;28;20094;-72
2023/03/30 10:15:53;;;;;;;10.40;2.05;;;;;;;;;;5054876;28;20033;-72
2023/03/30 10:18:36;;;;;;;8.40;1.95;;;;;;;;;;5063407;28;20805;-72
2023/03/30 10:21:27;;;;;;;9.77;2.20;;;;;;;;;;5039413;28;20024;-72
2023/03/30 10:24:03;;;;;;;9.63;2.00;;;;;;;;;;5060669;28;20063;-72
2023/03/30 10:26:30;;;;;;;8.40;1.55;;;;;;;;;;5064257;28;20738;-72
2023/03/30 10:29:03;;;;;;;7.72;1.63;;;;;;;;;;5050897;28;20538;-72
2023/03/30 10:31:30;;;;;;;7.97;2.55;;;;;;;;;;5044652;28;20512;-72
2023/03/30 10:33:59;;;;;;;10.07;2.30;;;;;;;;;;5043747;28;20041;-72
2023/03/30 10:36:38;;;;;;;9.05;1.90;;;;;;;;;;5041029;28;20071;-72
2023/03/30 10:39:13;;;;;;;8.02;1.52;;;;;;;;;;5045572;28;20025;-72
2023/03/30 10:41:40;;;;;;;7.47;2.00;;;;;;;;;;5041104;28;20059;-71
2023/03/30 10:44:20;;;;;;;7.78;1.73;;;;;;;;;;5060637;28;20048;-72
2023/03/30 10:46:49;;;;;;;10.73;1.90;;;;;;;;;;5048983;28;20033;-72
2023/03/30 10:49:46;;;;;;;6.90;2.13;;;;;;;;;;5075062;28;20045;-71
2023/03/30 10:52:16;;;;;;;9.93;1.55;;;;;;;;;;5043839;28;20530;-72
2023/03/30 10:54:54;;;;;;;8.07;1.95;;;;;;;;;;5062655;28;20422;-73
2023/03/30 10:57:26;;;;;;;6.75;1.80;;;;;;;;;;5058636;28;20028;-73
2023/03/30 11:00:13;;;;;;;10.00;1.90;;;;;;;;;;5065611;28;20041;-72
2023/03/30 11:03:20;;;;;;;10.10;2.38;;;;;;;;;;5064000;28;20171;-73
2023/03/30 11:05:50;;;;;;;10.23;2.03;;;;;;;;;;5041478;28;20033;-72
2023/03/30 11:08:23;;;;;;;11.32;2.10;;;;;;;;;;5043880;28;20037;-73
2023/03/30 11:10:53;;;;;;;6.32;2.13;;;;;;;;;;5061470;28;20032;-72
2023/03/30 11:13:25;;;;;;;8.32;1.60;;;;;;;;;;5064021;28;20036;-72
2023/03/30 11:16:15;;;;;;;10.13;2.17;;;;;;;;;;5054967;28;20043;-72
2023/03/30 11:18:52;;;;;;;10.35;1.90;;;;;;;;;;5053709;28;20119;-72
2023/03/30 11:21:23;;;;;;;10.23;2.10;;;;;;;;;;5066615;28;20032;-72
2023/03/30 11:23:52;;;;;;;4.78;1.60;;;;;;;;;;5068542;28;20052;-72
2023/03/30 11:26:31;;;;;;;7.00;1.25;;;;;;;;;;5067018;28;20041;-72
2023/03/30 11:29:18;;;;;;;9.68;2.03;;;;;;;;;;5065938;28;20051;-72
2023/03/30 11:31:52;;;;;;;12.65;1.90;;;;;;;;;;5066077;28;20052;-73
2023/03/30 11:34:33;;;;;;;5.72;1.58;;;;;;;;;;5067548;28;20033;-72
2023/03/30 11:37:11;;;;;;;10.77;2.33;;;;;;;;;;5099242;28;20036;-72
2023/03/30 11:39:44;;;;;;;6.28;1.67;;;;;;;;;;5067640;28;20071;-72
2023/03/30 11:42:16;;;;;;;7.07;1.83;;;;;;;;;;5068113;28;20036;-72
2023/03/30 11:44:42;;;;;;;13.17;1.80;;;;;;;;;;5067878;28;20032;-72
2023/03/30 11:47:26;;;;;;;12.15;2.20;;;;;;;;;;5066104;28;20643;-72
2023/03/30 11:50:16;;;;;;;14.43;2.55;;;;;;;;;;5079915;28;20048;-72
2023/03/30 11:53:26;;;;;;;11.98;2.00;;;;;;;;;;5062912;28;20115;-72
2023/03/30 11:56:19;;;;;;;9.38;2.13;;;;;;;;;;5001044;28;20038;-72
2023/03/30 11:58:47;;;;;;;7.20;2.03;;;;;;;;;;5065841;28;20045;-73
2023/03/30 12:01:15;;;;;;;8.80;1.90;;;;;;;;;;5067912;28;20086;-73
2023/03/30 12:03:45;;;;;;;8.55;1.70;;;;;;;;;;5062426;28;20381;-73
2023/03/30 12:06:23;;;;;;;9.45;1.60;;;;;;;;;;5046473;28;20029;-73
2023/03/30 12:09:15;;;;;;;7.10;1.85;;;;;;;;;;5049250;28;20505;-73
2023/03/30 12:11:55;;;;;;;6.78;1.75;;;;;;;;;;5063660;28;20041;-73
2023/03/30 12:14:27;;;;;;;7.85;1.60;;;;;;;;;;5066261;28;20478;-73
2023/03/30 12:17:00;;;;;;;8.10;1.63;;;;;;;;;;5065219;28;20055;-73
2023/03/30 12:19:48;;;;;;;6.88;1.60;;;;;;;;;;5066114;28;20037;-73
2023/03/30 12:22:19;;;;;;;9.77;1.27;;;;;;;;;;5059763;28;20040;-73
2023/03/30 12:25:35;;;;;;;7.82;1.20;;;;;;;;;;5066995;28;20028;-73
2023/03/30 12:28:13;;;;;;;11.55;1.80;;;;;;;;;;5030660;28;20112;-73
2023/03/30 12:30:43;;;;;;;8.55;2.15;;;;;;;;;;5065971;28;20120;-73
2023/03/30 12:33:17;;;;;;;4.50;1.60;;;;;;;;;;5066396;28;20054;-72
2023/03/30 12:35:56;;;;;;;6.75;1.83;;;;;;;;;;5066202;28;20088;-72
2023/03/30 12:38:25;;;;;;;9.18;1.83;;;;;;;;;;5075821;28;20076;-73
2023/03/30 12:41:03;;;;;;;8.52;1.98;;;;;;;;;;5054923;28;20040;-73
2023/03/30 12:43:48;;;;;;;9.23;1.80;;;;;;;;;;5063074;28;20044;-73
2023/03/30 12:46:48;;;;;;;7.78;1.70;;;;;;;;;;5064808;28;20427;-72
2023/03/30 12:49:28;;;;;;;10.55;2.13;;;;;;;;;;5061179;28;20110;-73
2023/03/30 12:52:09;;;;;;;8.68;1.63;;;;;;;;;;5062369;28;20806;-73
2023/03/30 12:54:52;;;;;;;6.70;1.83;;;;;;;;;;5063524;28;20063;-73
2023/03/30 12:57:27;;;;;;;14.02;1.65;;;;;;;;;;5066076;28;20016;-73
2023/03/30 13:00:03;;;;;;;9.00;1.70;;;;;;;;;;5066750;28;20551;-73
2023/03/30 13:02:45;;;;;;;9.52;1.48;;;;;;;;;;5066318;28;20594;-73
2023/03/30 13:05:43;;;;;;;8.52;1.38;;;;;;;;;;5050875;28;20033;-73
2023/03/30 13:08:15;;;;;;;8.10;1.40;;;;;;;;;;5045253;28;20527;-72
2023/03/30 13:10:41;;;;;;;6.80;1.58;;;;;;;;;;5056586;28;20063;-72
2023/03/30 13:13:23;;;;;;;5.53;1.60;;;;;;;;;;5066547;28;20423;-72
2023/03/30 13:15:56;;;;;;;3.85;1.20;;;;;;;;;;5067063;28;20025;-72
2023/03/30 13:18:30;;;;;;;6.05;1.00;;;;;;;;;;5064257;28;20119;-72
2023/03/30 13:20:56;;;;;;;9.95;1.98;;;;;;;;;;5062416;28;20075;-72
2023/03/30 13:23:21;;;;;;;4.03;1.30;;;;;;;;;;5061910;28;20582;-70
2023/03/30 13:26:25;;;;;;;3.10;0.70;;;;;;;;;;5047425;28;20512;-70
2023/03/30 13:28:56;;;;;;;2.15;0.73;;;;;;;;;;5037692;28;20136;-70
2023/03/30 13:31:48;;;;;;;4.43;1.20;;;;;;;;;;5065577;28;20694;-70
2023/03/30 13:34:32;;;;;;;5.35;0.90;;;;;;;;;;5066605;28;20059;-70
2023/03/30 13:37:14;;;;;;;3.55;0.95;;;;;;;;;;5065061;28;20831;-70
2023/03/30 13:39:55;;;;;;;3.38;1.00;;;;;;;;;;5065766;28;20077;-70
2023/03/30 13:42:48;;;;;;;3.47;1.27;;;;;;;;;;5065903;28;20028;-70
2023/03/30 13:45:42;;;;;;;4.83;0.90;;;;;;;;;;5063234;28;20021;-70
2023/03/30 13:48:27;;;;;;;;;;;;;;;;;;5067252;28;20024;-70
2023/03/30 13:50:58;;;;;;;6.00;1.30;;;;;;;;;;5044086;28;19912;-71
2023/03/30 13:53:32;;;;;;;3.67;2.55;;;;;;;;;;5097807;28;20462;-73
2023/03/30 13:55:57;;;;;;;4.00;1.17;;;;;;;;;;5062099;28;20589;-72
2023/03/30 13:58:31;;;;;;;5.00;1.20;;;;;;;;;;5066075;28;20587;-71
2023/03/30 14:01:06;;;;;;;5.25;1.35;;;;;;;;;;5064903;28;20566;-71
2023/03/30 14:03:40;;;;;;;4.38;1.23;;;;;;;;;;5063197;28;20032;-72
2023/03/30 14:06:12;;;;;;;4.85;1.20;;;;;;;;;;5049118;28;20021;-71
2023/03/30 14:08:40;;;;;;;6.13;1.60;;;;;;;;;;5062331;28;20039;-72
2023/03/30 14:11:32;;;;;;;6.88;1.40;;;;;;;;;;5065130;28;20032;-71
2023/03/30 14:13:57;;;;;;;5.05;1.70;;;;;;;;;;5061963;28;20036;-71
2023/03/30 14:16:31;;;;;;;10.35;1.90;;;;;;;;;;5052995;28;20029;-71
2023/03/30 14:19:08;;;;;;;9.63;2.10;;;;;;;;;;5056784;28;20040;-71
2023/03/30 14:21:35;;;;;;;8.57;1.90;;;;;;;;;;5057918;28;20036;-72
2023/03/30 14:24:03;;;;;;;8.40;2.20;;;;;;;;;;5061245;28;20021;-71
2023/03/30 14:26:29;;;;;;;8.68;2.45;;;;;;;;;;5046342;28;20431;-73
2023/03/30 14:28:57;;;;;;;11.05;2.05;;;;;;;;;;5054913;28;20117;-73
2023/03/30 14:31:25;;;;;;;9.02;1.80;;;;;;;;;;5053560;28;20427;-70
2023/03/30 14:33:51;;;;;;;9.20;2.17;;;;;;;;;;5059781;28;20051;-73
2023/03/30 14:36:19;;;;;;;11.48;2.25;;;;;;;;;;5059942;28;20025;-72
2023/03/30 14:38:46;;;;;;;9.00;1.88;;;;;;;;;;5062080;28;20432;-71
2023/03/30 14:41:23;;;;;;;8.73;1.88;;;;;;;;;;5060130;28;20025;-72
2023/03/30 14:44:02;;;;;;;9.63;2.30;;;;;;;;;;5061221;28;20811;-72
2023/03/30 14:46:48;;;;;;;6.45;1.77;;;;;;;;;;5056935;28;20041;-73
2023/03/30 14:49:24;;;;;;;5.28;1.90;;;;;;;;;;5062921;28;20055;-73
2023/03/30 14:51:51;;;;;;;6.53;2.00;;;;;;;;;;5063006;28;20079;-71
2023/03/30 14:54:23;;;;;;;9.05;2.08;;;;;;;;;;5066204;28;20104;-71
2023/03/30 14:56:57;;;;;;;7.75;1.85;;;;;;;;;;5066717;28;20020;-71
2023/03/30 14:59:25;;;;;;;15.25;2.25;;;;;;;;;;5066963;28;20132;-71
2023/03/30 15:01:51;;;;;;;6.28;1.67;;;;;;;;;;5065270;28;20111;-72
2023/03/30 15:04:19;;;;;;;9.95;1.83;;;;;;;;;;5062284;28;20085;-72
2023/03/30 15:06:46;;;;;;;7.07;1.67;;;;;;;;;;5061589;28;20032;-72